sensor_id;sensor_type;location;lat;lon;timestamp;temperature;humidity
49729;DHT22;35617;50.714;7.114;2022-10-16T00:01:27;15.80;99.90
49729;DHT22;35617;50.714;7.114;2022-10-16T00:03:54;15.80;99.90
49729;DHT22;35617;50.714;7.114;2022-10-16T00:06:21;15.80;99.90
49729;DHT22;35617;50.714;7.114;2022-10-16T00:08:47;15.80;99.90
49729;DHT22;35617;50.714;7.114;2022-10-16T00:11:15;15.80;99.90
49729;DHT22;35617;50.714;7.114;2022-10-16T00:13:42;15.80;99.90
49729;DHT22;35617;50.714;7.114;2022-10-16T00:16:09;15.80;99.90
49729;DHT22;35617;50.714;7.114;2022-10-16T00:18:36;15.80;99.90
49729;DHT22;35617;50.714;7.114;2022-10-16T00:21:11;15.80;99.90
49729;DHT22;35617;50.714;7.114;2022-10-16T00:23:37;15.70;99.90
49729;DHT22;35617;50.714;7.114;2022-10-16T00:26:06;15.70;99.90
49729;DHT22;35617;50.714;7.114;2022-10-16T00:28:33;15.70;99.90
49729;DHT22;35617;50.714;7.114;2022-10-16T00:31:02;15.70;99.90
49729;DHT22;35617;50.714;7.114;2022-10-16T00:33:28;15.60;99.90
49729;DHT22;35617;50.714;7.114;2022-10-16T00:35:53;15.60;99.90
49729;DHT22;35617;50.714;7.114;2022-10-16T00:38:19;15.60;99.90
49729;DHT22;35617;50.714;7.114;2022-10-16T00:40:44;15.60;99.90
49729;DHT22;35617;50.714;7.114;2022-10-16T00:43:37;15.60;99.90
49729;DHT22;35617;50.714;7.114;2022-10-16T00:46:10;15.60;99.90
49729;DHT22;35617;50.714;7.114;2022-10-16T00:48:36;15.50;99.90
49729;DHT22;35617;50.714;7.114;2022-10-16T00:51:02;15.50;99.90
49729;DHT22;35617;50.714;7.114;2022-10-16T00:53:28;15.50;99.90
49729;DHT22;35617;50.714;7.114;2022-10-16T00:55:54;15.40;99.90
49729;DHT22;35617;50.714;7.114;2022-10-16T00:58:20;15.40;99.90
49729;DHT22;35617;50.714;7.114;2022-10-16T01:00:46;15.40;99.90
49729;DHT22;35617;50.714;7.114;2022-10-16T01:03:28;15.40;99.90
49729;DHT22;35617;50.714;7.114;2022-10-16T01:06:06;15.50;99.90
49729;DHT22;35617;50.714;7.114;2022-10-16T01:11:53;15.40;99.90
49729;DHT22;35617;50.714;7.114;2022-10-16T01:14:48;15.30;99.90
49729;DHT22;35617;50.714;7.114;2022-10-16T01:17:24;15.30;99.90
49729;DHT22;35617;50.714;7.114;2022-10-16T01:20:23;15.30;99.90
49729;DHT22;35617;50.714;7.114;2022-10-16T01:25:37;15.20;99.90
49729;DHT22;35617;50.714;7.114;2022-10-16T01:28:06;15.20;99.90
49729;DHT22;35617;50.714;7.114;2022-10-16T01:30:35;15.20;99.90
49729;DHT22;35617;50.714;7.114;2022-10-16T01:35:52;15.10;99.90
49729;DHT22;35617;50.714;7.114;2022-10-16T01:38:32;15.10;99.90
49729;DHT22;35617;50.714;7.114;2022-10-16T01:41:01;15.10;99.90
49729;DHT22;35617;50.714;7.114;2022-10-16T01:43:39;15.00;99.90
49729;DHT22;35617;50.714;7.114;2022-10-16T01:46:07;15.00;99.90
49729;DHT22;35617;50.714;7.114;2022-10-16T01:48:34;14.90;99.90
49729;DHT22;35617;50.714;7.114;2022-10-16T01:51:07;14.90;99.90
49729;DHT22;35617;50.714;7.114;2022-10-16T01:53:33;14.90;99.90
49729;DHT22;35617;50.714;7.114;2022-10-16T01:56:00;14.90;99.90
49729;DHT22;35617;50.714;7.114;2022-10-16T01:58:28;14.90;99.90
49729;DHT22;35617;50.714;7.114;2022-10-16T02:00:56;14.80;99.90
49729;DHT22;35617;50.714;7.114;2022-10-16T02:03:22;14.80;99.90
49729;DHT22;35617;50.714;7.114;2022-10-16T02:05:54;14.90;99.90
49729;DHT22;35617;50.714;7.114;2022-10-16T02:08:23;14.90;99.90
49729;DHT22;35617;50.714;7.114;2022-10-16T02:10:49;14.90;99.90
49729;DHT22;35617;50.714;7.114;2022-10-16T02:13:44;15.00;99.90
49729;DHT22;35617;50.714;7.114;2022-10-16T02:16:11;15.00;99.90
49729;DHT22;35617;50.714;7.114;2022-10-16T02:18:38;15.00;99.90
49729;DHT22;35617;50.714;7.114;2022-10-16T02:23:51;15.10;99.90
49729;DHT22;35617;50.714;7.114;2022-10-16T02:26:27;15.10;99.90
49729;DHT22;35617;50.714;7.114;2022-10-16T02:28:59;15.10;99.90
49729;DHT22;35617;50.714;7.114;2022-10-16T02:31:28;15.10;99.90
49729;DHT22;35617;50.714;7.114;2022-10-16T02:33:58;15.10;99.90
49729;DHT22;35617;50.714;7.114;2022-10-16T02:36:25;15.10;99.90
49729;DHT22;35617;50.714;7.114;2022-10-16T02:38:51;15.20;99.90
49729;DHT22;35617;50.714;7.114;2022-10-16T02:41:18;15.20;99.90
49729;DHT22;35617;50.714;7.114;2022-10-16T02:43:45;15.20;99.90
49729;DHT22;35617;50.714;7.114;2022-10-16T02:46:11;15.20;99.90
49729;DHT22;35617;50.714;7.114;2022-10-16T02:48:36;15.20;99.90
49729;DHT22;35617;50.714;7.114;2022-10-16T02:51:02;15.20;99.90
49729;DHT22;35617;50.714;7.114;2022-10-16T02:53:28;15.30;99.90
49729;DHT22;35617;50.714;7.114;2022-10-16T02:55:53;15.30;99.90
49729;DHT22;35617;50.714;7.114;2022-10-16T02:58:19;15.30;99.90
49729;DHT22;35617;50.714;7.114;2022-10-16T03:00:45;15.30;99.90
49729;DHT22;35617;50.714;7.114;2022-10-16T03:03:11;15.30;99.90
49729;DHT22;35617;50.714;7.114;2022-10-16T03:05:36;15.30;99.90
49729;DHT22;35617;50.714;7.114;2022-10-16T03:08:02;15.30;99.90
49729;DHT22;35617;50.714;7.114;2022-10-16T03:10:28;15.30;99.90
49729;DHT22;35617;50.714;7.114;2022-10-16T03:12:53;15.30;99.90
49729;DHT22;35617;50.714;7.114;2022-10-16T03:15:19;15.30;99.90
49729;DHT22;35617;50.714;7.114;2022-10-16T03:17:44;15.30;99.90
49729;DHT22;35617;50.714;7.114;2022-10-16T03:20:10;15.30;99.90
49729;DHT22;35617;50.714;7.114;2022-10-16T03:22:36;15.30;99.90
49729;DHT22;35617;50.714;7.114;2022-10-16T03:25:02;15.30;99.90
49729;DHT22;35617;50.714;7.114;2022-10-16T03:27:27;15.40;99.90
49729;DHT22;35617;50.714;7.114;2022-10-16T03:29:53;15.30;99.90
49729;DHT22;35617;50.714;7.114;2022-10-16T03:32:18;15.30;99.90
49729;DHT22;35617;50.714;7.114;2022-10-16T03:34:45;15.30;99.90
49729;DHT22;35617;50.714;7.114;2022-10-16T03:37:10;15.30;99.90
49729;DHT22;35617;50.714;7.114;2022-10-16T03:39:36;15.30;99.90
49729;DHT22;35617;50.714;7.114;2022-10-16T03:42:02;15.30;99.90
49729;DHT22;35617;50.714;7.114;2022-10-16T03:44:28;15.30;99.90
49729;DHT22;35617;50.714;7.114;2022-10-16T03:46:53;15.30;99.90
49729;DHT22;35617;50.714;7.114;2022-10-16T03:49:19;15.30;99.90
49729;DHT22;35617;50.714;7.114;2022-10-16T03:51:44;15.30;99.90
49729;DHT22;35617;50.714;7.114;2022-10-16T03:54:10;15.30;99.90
49729;DHT22;35617;50.714;7.114;2022-10-16T03:56:36;15.40;99.90
49729;DHT22;35617;50.714;7.114;2022-10-16T03:59:01;15.40;99.90
49729;DHT22;35617;50.714;7.114;2022-10-16T04:01:27;15.40;99.90
49729;DHT22;35617;50.714;7.114;2022-10-16T04:03:52;15.40;99.90
49729;DHT22;35617;50.714;7.114;2022-10-16T04:06:18;15.40;99.90
49729;DHT22;35617;50.714;7.114;2022-10-16T04:08:44;15.40;99.90
49729;DHT22;35617;50.714;7.114;2022-10-16T04:11:10;15.40;99.90
49729;DHT22;35617;50.714;7.114;2022-10-16T04:13:35;15.40;99.90
49729;DHT22;35617;50.714;7.114;2022-10-16T04:16:01;15.50;99.90
49729;DHT22;35617;50.714;7.114;2022-10-16T04:18:26;15.40;99.90
49729;DHT22;35617;50.714;7.114;2022-10-16T04:20:53;15.40;99.90
49729;DHT22;35617;50.714;7.114;2022-10-16T04:23:18;15.40;99.90
49729;DHT22;35617;50.714;7.114;2022-10-16T04:25:44;15.40;99.90
49729;DHT22;35617;50.714;7.114;2022-10-16T04:28:09;15.40;99.90
49729;DHT22;35617;50.714;7.114;2022-10-16T04:30:38;15.40;99.90
49729;DHT22;35617;50.714;7.114;2022-10-16T04:33:04;15.40;99.90
49729;DHT22;35617;50.714;7.114;2022-10-16T04:35:29;15.50;99.90
49729;DHT22;35617;50.714;7.114;2022-10-16T04:37:57;15.50;99.90
49729;DHT22;35617;50.714;7.114;2022-10-16T04:40:23;15.50;99.90
49729;DHT22;35617;50.714;7.114;2022-10-16T04:42:49;15.50;99.90
49729;DHT22;35617;50.714;7.114;2022-10-16T04:45:14;15.50;99.90
49729;DHT22;35617;50.714;7.114;2022-10-16T04:47:40;15.50;99.90
49729;DHT22;35617;50.714;7.114;2022-10-16T04:50:06;15.50;99.90
49729;DHT22;35617;50.714;7.114;2022-10-16T04:52:31;15.50;99.90
49729;DHT22;35617;50.714;7.114;2022-10-16T04:54:57;15.50;99.90
49729;DHT22;35617;50.714;7.114;2022-10-16T04:57:26;15.50;99.90
49729;DHT22;35617;50.714;7.114;2022-10-16T04:59:52;15.50;99.90
49729;DHT22;35617;50.714;7.114;2022-10-16T05:02:18;15.50;99.90
49729;DHT22;35617;50.714;7.114;2022-10-16T05:04:43;15.40;99.90
49729;DHT22;35617;50.714;7.114;2022-10-16T05:07:09;15.50;99.90
49729;DHT22;35617;50.714;7.114;2022-10-16T05:09:34;15.40;99.90
49729;DHT22;35617;50.714;7.114;2022-10-16T05:12:00;15.40;99.90
49729;DHT22;35617;50.714;7.114;2022-10-16T05:14:26;15.40;99.90
49729;DHT22;35617;50.714;7.114;2022-10-16T05:16:51;15.40;99.90
49729;DHT22;35617;50.714;7.114;2022-10-16T05:19:17;15.40;99.90
49729;DHT22;35617;50.714;7.114;2022-10-16T05:21:42;15.40;99.90
49729;DHT22;35617;50.714;7.114;2022-10-16T05:24:08;15.40;99.90
49729;DHT22;35617;50.714;7.114;2022-10-16T05:26:34;15.30;99.90
49729;DHT22;35617;50.714;7.114;2022-10-16T05:29:00;15.30;99.90
49729;DHT22;35617;50.714;7.114;2022-10-16T05:31:26;15.30;99.90
49729;DHT22;35617;50.714;7.114;2022-10-16T05:33:51;15.30;99.90
49729;DHT22;35617;50.714;7.114;2022-10-16T05:36:17;15.30;99.90
49729;DHT22;35617;50.714;7.114;2022-10-16T05:38:43;15.30;99.90
49729;DHT22;35617;50.714;7.114;2022-10-16T05:41:09;15.30;99.90
49729;DHT22;35617;50.714;7.114;2022-10-16T05:43:35;15.30;99.90
49729;DHT22;35617;50.714;7.114;2022-10-16T05:46:03;15.40;99.90
49729;DHT22;35617;50.714;7.114;2022-10-16T05:48:28;15.30;99.90
49729;DHT22;35617;50.714;7.114;2022-10-16T05:51:02;15.40;99.90
49729;DHT22;35617;50.714;7.114;2022-10-16T05:53:30;15.40;99.90
49729;DHT22;35617;50.714;7.114;2022-10-16T05:55:56;15.40;99.90
49729;DHT22;35617;50.714;7.114;2022-10-16T05:58:23;15.40;99.90
49729;DHT22;35617;50.714;7.114;2022-10-16T06:03:20;15.40;99.90
49729;DHT22;35617;50.714;7.114;2022-10-16T06:05:46;15.40;99.90
49729;DHT22;35617;50.714;7.114;2022-10-16T06:08:12;15.40;99.90
49729;DHT22;35617;50.714;7.114;2022-10-16T06:10:37;15.40;99.90
49729;DHT22;35617;50.714;7.114;2022-10-16T06:13:03;15.40;99.90
49729;DHT22;35617;50.714;7.114;2022-10-16T06:15:29;15.40;99.90
49729;DHT22;35617;50.714;7.114;2022-10-16T06:17:55;15.50;99.90
49729;DHT22;35617;50.714;7.114;2022-10-16T06:20:20;15.40;99.90
49729;DHT22;35617;50.714;7.114;2022-10-16T06:22:46;15.50;99.90
49729;DHT22;35617;50.714;7.114;2022-10-16T06:25:11;15.40;99.90
49729;DHT22;35617;50.714;7.114;2022-10-16T06:27:39;15.50;99.90
49729;DHT22;35617;50.714;7.114;2022-10-16T06:30:06;15.50;99.90
49729;DHT22;35617;50.714;7.114;2022-10-16T06:32:32;15.50;99.90
49729;DHT22;35617;50.714;7.114;2022-10-16T06:34:57;15.50;99.90
49729;DHT22;35617;50.714;7.114;2022-10-16T06:37:23;15.50;99.90
49729;DHT22;35617;50.714;7.114;2022-10-16T06:39:50;15.50;99.90
49729;DHT22;35617;50.714;7.114;2022-10-16T06:42:17;15.50;99.90
49729;DHT22;35617;50.714;7.114;2022-10-16T06:44:43;15.50;99.90
49729;DHT22;35617;50.714;7.114;2022-10-16T06:47:08;15.50;99.90
49729;DHT22;35617;50.714;7.114;2022-10-16T06:49:34;15.50;99.90
49729;DHT22;35617;50.714;7.114;2022-10-16T06:52:00;15.50;99.90
49729;DHT22;35617;50.714;7.114;2022-10-16T06:54:27;15.50;99.90
49729;DHT22;35617;50.714;7.114;2022-10-16T06:56:52;15.60;99.90
49729;DHT22;35617;50.714;7.114;2022-10-16T06:59:20;15.60;99.90
49729;DHT22;35617;50.714;7.114;2022-10-16T07:01:45;15.60;99.90
49729;DHT22;35617;50.714;7.114;2022-10-16T07:04:11;15.60;99.90
49729;DHT22;35617;50.714;7.114;2022-10-16T07:06:36;15.70;99.90
49729;DHT22;35617;50.714;7.114;2022-10-16T07:09:07;15.70;99.90
49729;DHT22;35617;50.714;7.114;2022-10-16T07:11:34;15.70;99.90
49729;DHT22;35617;50.714;7.114;2022-10-16T07:14:00;15.70;99.90
49729;DHT22;35617;50.714;7.114;2022-10-16T07:16:27;15.60;99.90
49729;DHT22;35617;50.714;7.114;2022-10-16T07:18:58;15.70;99.90
49729;DHT22;35617;50.714;7.114;2022-10-16T07:21:29;15.70;99.90
49729;DHT22;35617;50.714;7.114;2022-10-16T07:23:58;15.70;99.90
49729;DHT22;35617;50.714;7.114;2022-10-16T07:26:25;15.80;99.90
49729;DHT22;35617;50.714;7.114;2022-10-16T07:28:51;15.80;99.90
49729;DHT22;35617;50.714;7.114;2022-10-16T07:31:19;15.90;99.90
49729;DHT22;35617;50.714;7.114;2022-10-16T07:33:46;15.90;99.90
49729;DHT22;35617;50.714;7.114;2022-10-16T07:36:13;15.90;99.90
49729;DHT22;35617;50.714;7.114;2022-10-16T07:38:39;15.90;99.90
49729;DHT22;35617;50.714;7.114;2022-10-16T07:41:06;15.90;99.90
49729;DHT22;35617;50.714;7.114;2022-10-16T07:43:32;15.90;99.90
49729;DHT22;35617;50.714;7.114;2022-10-16T07:45:58;16.00;99.90
49729;DHT22;35617;50.714;7.114;2022-10-16T07:48:27;16.00;99.90
49729;DHT22;35617;50.714;7.114;2022-10-16T07:51:00;15.90;99.90
49729;DHT22;35617;50.714;7.114;2022-10-16T07:53:26;16.00;99.90
49729;DHT22;35617;50.714;7.114;2022-10-16T07:55:52;15.90;99.90
49729;DHT22;35617;50.714;7.114;2022-10-16T07:58:17;16.00;99.90
49729;DHT22;35617;50.714;7.114;2022-10-16T08:00:43;16.00;99.90
49729;DHT22;35617;50.714;7.114;2022-10-16T08:03:08;16.00;99.90
49729;DHT22;35617;50.714;7.114;2022-10-16T08:05:34;16.00;99.90
49729;DHT22;35617;50.714;7.114;2022-10-16T08:08:01;16.10;99.90
49729;DHT22;35617;50.714;7.114;2022-10-16T08:10:28;16.00;99.90
49729;DHT22;35617;50.714;7.114;2022-10-16T08:12:55;16.10;99.90
49729;DHT22;35617;50.714;7.114;2022-10-16T08:15:21;16.10;99.90
49729;DHT22;35617;50.714;7.114;2022-10-16T08:18:01;16.10;99.90
49729;DHT22;35617;50.714;7.114;2022-10-16T08:20:27;16.10;99.90
49729;DHT22;35617;50.714;7.114;2022-10-16T08:22:54;16.10;99.90
49729;DHT22;35617;50.714;7.114;2022-10-16T08:25:21;16.10;99.90
49729;DHT22;35617;50.714;7.114;2022-10-16T08:27:47;16.10;99.90
49729;DHT22;35617;50.714;7.114;2022-10-16T08:30:13;16.10;99.90
49729;DHT22;35617;50.714;7.114;2022-10-16T08:32:38;16.20;99.90
49729;DHT22;35617;50.714;7.114;2022-10-16T08:35:04;16.20;99.90
49729;DHT22;35617;50.714;7.114;2022-10-16T08:37:31;16.20;99.90
49729;DHT22;35617;50.714;7.114;2022-10-16T08:39:58;16.30;99.90
49729;DHT22;35617;50.714;7.114;2022-10-16T08:42:55;16.30;99.90
49729;DHT22;35617;50.714;7.114;2022-10-16T08:50:39;16.40;99.90
49729;DHT22;35617;50.714;7.114;2022-10-16T08:53:06;16.40;99.90
49729;DHT22;35617;50.714;7.114;2022-10-16T08:55:42;16.40;99.90
49729;DHT22;35617;50.714;7.114;2022-10-16T08:58:17;16.50;99.90
49729;DHT22;35617;50.714;7.114;2022-10-16T09:00:50;16.50;99.90
49729;DHT22;35617;50.714;7.114;2022-10-16T09:11:03;17.00;99.90
49729;DHT22;35617;50.714;7.114;2022-10-16T09:14:04;17.10;99.90
49729;DHT22;35617;50.714;7.114;2022-10-16T09:16:40;17.30;99.90
49729;DHT22;35617;50.714;7.114;2022-10-16T09:21:44;17.50;99.90
49729;DHT22;35617;50.714;7.114;2022-10-16T09:24:16;17.60;99.90
49729;DHT22;35617;50.714;7.114;2022-10-16T09:26:43;17.60;99.90
49729;DHT22;35617;50.714;7.114;2022-10-16T09:29:16;17.60;99.90
49729;DHT22;35617;50.714;7.114;2022-10-16T09:31:42;17.60;99.90
49729;DHT22;35617;50.714;7.114;2022-10-16T09:34:31;17.60;99.90
49729;DHT22;35617;50.714;7.114;2022-10-16T09:36:58;17.60;99.90
49729;DHT22;35617;50.714;7.114;2022-10-16T09:39:24;17.60;99.90
49729;DHT22;35617;50.714;7.114;2022-10-16T09:41:50;17.60;99.90
49729;DHT22;35617;50.714;7.114;2022-10-16T09:44:30;17.60;99.90
49729;DHT22;35617;50.714;7.114;2022-10-16T09:47:13;17.60;99.90
49729;DHT22;35617;50.714;7.114;2022-10-16T09:49:53;17.70;99.90
49729;DHT22;35617;50.714;7.114;2022-10-16T09:52:21;17.70;99.90
49729;DHT22;35617;50.714;7.114;2022-10-16T09:54:55;17.70;99.90
49729;DHT22;35617;50.714;7.114;2022-10-16T09:57:21;17.80;99.90
49729;DHT22;35617;50.714;7.114;2022-10-16T09:59:52;17.80;99.90
49729;DHT22;35617;50.714;7.114;2022-10-16T10:02:26;17.90;99.90
49729;DHT22;35617;50.714;7.114;2022-10-16T10:04:54;17.90;99.90
49729;DHT22;35617;50.714;7.114;2022-10-16T10:07:42;18.00;99.90
49729;DHT22;35617;50.714;7.114;2022-10-16T10:10:20;18.00;99.90
49729;DHT22;35617;50.714;7.114;2022-10-16T10:12:46;18.10;99.90
49729;DHT22;35617;50.714;7.114;2022-10-16T10:15:13;18.20;99.90
49729;DHT22;35617;50.714;7.114;2022-10-16T10:20:28;18.30;99.90
49729;DHT22;35617;50.714;7.114;2022-10-16T10:22:55;18.30;99.90
49729;DHT22;35617;50.714;7.114;2022-10-16T10:28:32;18.40;99.90
49729;DHT22;35617;50.714;7.114;2022-10-16T10:31:13;18.50;99.90
49729;DHT22;35617;50.714;7.114;2022-10-16T10:33:44;18.60;99.90
49729;DHT22;35617;50.714;7.114;2022-10-16T10:36:37;18.80;99.90
49729;DHT22;35617;50.714;7.114;2022-10-16T10:39:40;19.00;99.90
49729;DHT22;35617;50.714;7.114;2022-10-16T10:42:11;19.10;99.80
49729;DHT22;35617;50.714;7.114;2022-10-16T10:44:56;19.20;99.90
49729;DHT22;35617;50.714;7.114;2022-10-16T10:52:58;19.40;98.60
49729;DHT22;35617;50.714;7.114;2022-10-16T10:58:04;19.40;97.90
49729;DHT22;35617;50.714;7.114;2022-10-16T11:00:55;19.40;97.30
49729;DHT22;35617;50.714;7.114;2022-10-16T11:09:11;19.50;97.70
49729;DHT22;35617;50.714;7.114;2022-10-16T11:11:45;19.60;98.40
49729;DHT22;35617;50.714;7.114;2022-10-16T11:17:08;19.80;98.20
49729;DHT22;35617;50.714;7.114;2022-10-16T11:19:52;19.90;98.40
49729;DHT22;35617;50.714;7.114;2022-10-16T11:22:28;20.00;98.60
49729;DHT22;35617;50.714;7.114;2022-10-16T11:30:26;20.20;96.60
49729;DHT22;35617;50.714;7.114;2022-10-16T11:33:00;20.20;96.80
49729;DHT22;35617;50.714;7.114;2022-10-16T11:35:38;20.30;96.90
49729;DHT22;35617;50.714;7.114;2022-10-16T11:38:13;20.40;96.70
49729;DHT22;35617;50.714;7.114;2022-10-16T11:40:41;20.50;95.80
49729;DHT22;35617;50.714;7.114;2022-10-16T11:45:54;20.50;95.60
49729;DHT22;35617;50.714;7.114;2022-10-16T11:48:27;20.40;95.60
49729;DHT22;35617;50.714;7.114;2022-10-16T11:56:16;20.40;95.40
49729;DHT22;35617;50.714;7.114;2022-10-16T12:07:05;20.90;95.00
49729;DHT22;35617;50.714;7.114;2022-10-16T12:09:35;20.90;95.10
49729;DHT22;35617;50.714;7.114;2022-10-16T12:12:02;21.10;94.90
49729;DHT22;35617;50.714;7.114;2022-10-16T12:14:40;21.10;94.70
49729;DHT22;35617;50.714;7.114;2022-10-16T12:19:58;21.20;93.30
49729;DHT22;35617;50.714;7.114;2022-10-16T12:22:27;21.20;93.20
49729;DHT22;35617;50.714;7.114;2022-10-16T12:24:54;21.30;92.90
49729;DHT22;35617;50.714;7.114;2022-10-16T12:27:32;21.30;92.80
49729;DHT22;35617;50.714;7.114;2022-10-16T12:30:01;21.40;92.60
49729;DHT22;35617;50.714;7.114;2022-10-16T12:32:31;21.50;92.80
49729;DHT22;35617;50.714;7.114;2022-10-16T12:34:58;21.60;92.80
49729;DHT22;35617;50.714;7.114;2022-10-16T12:37:26;21.70;92.90
49729;DHT22;35617;50.714;7.114;2022-10-16T12:39:54;21.70;92.80
49729;DHT22;35617;50.714;7.114;2022-10-16T12:42:22;21.70;92.70
49729;DHT22;35617;50.714;7.114;2022-10-16T12:44:48;21.70;92.90
49729;DHT22;35617;50.714;7.114;2022-10-16T12:47:36;21.80;93.00
49729;DHT22;35617;50.714;7.114;2022-10-16T12:50:03;21.70;92.60
49729;DHT22;35617;50.714;7.114;2022-10-16T12:52:36;21.80;92.90
49729;DHT22;35617;50.714;7.114;2022-10-16T12:55:03;21.90;92.60
49729;DHT22;35617;50.714;7.114;2022-10-16T13:00:26;22.00;92.80
49729;DHT22;35617;50.714;7.114;2022-10-16T13:05:58;22.20;92.40
49729;DHT22;35617;50.714;7.114;2022-10-16T13:08:55;22.30;92.10
49729;DHT22;35617;50.714;7.114;2022-10-16T13:11:28;22.40;92.00
49729;DHT22;35617;50.714;7.114;2022-10-16T13:14:14;22.60;91.50
49729;DHT22;35617;50.714;7.114;2022-10-16T13:19:44;22.70;90.80
49729;DHT22;35617;50.714;7.114;2022-10-16T13:24:54;22.70;90.50
49729;DHT22;35617;50.714;7.114;2022-10-16T13:28:02;22.70;90.00
49729;DHT22;35617;50.714;7.114;2022-10-16T13:30:24;22.60;90.00
49729;DHT22;35617;50.714;7.114;2022-10-16T13:33:17;22.60;90.20
49729;DHT22;35617;50.714;7.114;2022-10-16T13:35:53;22.50;90.20
49729;DHT22;35617;50.714;7.114;2022-10-16T13:38:21;22.50;90.00
49729;DHT22;35617;50.714;7.114;2022-10-16T13:41:17;22.40;90.20
49729;DHT22;35617;50.714;7.114;2022-10-16T13:43:50;22.40;90.20
49729;DHT22;35617;50.714;7.114;2022-10-16T13:46:22;22.40;90.20
49729;DHT22;35617;50.714;7.114;2022-10-16T13:49:17;22.30;90.50
49729;DHT22;35617;50.714;7.114;2022-10-16T13:51:58;22.30;90.60
49729;DHT22;35617;50.714;7.114;2022-10-16T13:54:27;22.30;90.90
49729;DHT22;35617;50.714;7.114;2022-10-16T13:56:56;22.40;91.00
49729;DHT22;35617;50.714;7.114;2022-10-16T13:59:26;22.50;90.80
49729;DHT22;35617;50.714;7.114;2022-10-16T14:01:56;22.60;90.70
49729;DHT22;35617;50.714;7.114;2022-10-16T14:04:23;22.60;90.50
49729;DHT22;35617;50.714;7.114;2022-10-16T14:06:51;22.70;90.60
49729;DHT22;35617;50.714;7.114;2022-10-16T14:09:24;22.70;90.40
49729;DHT22;35617;50.714;7.114;2022-10-16T14:12:00;22.80;90.00
49729;DHT22;35617;50.714;7.114;2022-10-16T14:14:46;22.80;90.00
49729;DHT22;35617;50.714;7.114;2022-10-16T14:17:17;22.80;89.40
49729;DHT22;35617;50.714;7.114;2022-10-16T14:19:47;22.80;90.10
49729;DHT22;35617;50.714;7.114;2022-10-16T14:22:34;22.80;90.00
49729;DHT22;35617;50.714;7.114;2022-10-16T14:25:00;22.70;90.00
49729;DHT22;35617;50.714;7.114;2022-10-16T14:27:32;22.70;90.30
49729;DHT22;35617;50.714;7.114;2022-10-16T14:30:20;22.70;90.50
49729;DHT22;35617;50.714;7.114;2022-10-16T14:35:29;22.70;91.60
49729;DHT22;35617;50.714;7.114;2022-10-16T14:37:56;22.70;91.90
49729;DHT22;35617;50.714;7.114;2022-10-16T14:40:34;22.60;92.10
49729;DHT22;35617;50.714;7.114;2022-10-16T14:43:02;22.60;92.20
49729;DHT22;35617;50.714;7.114;2022-10-16T14:45:30;22.70;92.30
49729;DHT22;35617;50.714;7.114;2022-10-16T14:48:05;22.60;92.30
49729;DHT22;35617;50.714;7.114;2022-10-16T14:50:32;22.70;92.50
49729;DHT22;35617;50.714;7.114;2022-10-16T14:52:58;22.60;92.60
49729;DHT22;35617;50.714;7.114;2022-10-16T14:55:25;22.60;92.80
49729;DHT22;35617;50.714;7.114;2022-10-16T14:57:51;22.50;92.90
49729;DHT22;35617;50.714;7.114;2022-10-16T15:00:22;22.40;93.00
49729;DHT22;35617;50.714;7.114;2022-10-16T15:02:50;22.40;93.30
49729;DHT22;35617;50.714;7.114;2022-10-16T15:05:21;22.30;93.50
49729;DHT22;35617;50.714;7.114;2022-10-16T15:07:49;22.20;93.70
49729;DHT22;35617;50.714;7.114;2022-10-16T15:10:16;22.20;94.00
49729;DHT22;35617;50.714;7.114;2022-10-16T15:12:42;22.10;94.10
49729;DHT22;35617;50.714;7.114;2022-10-16T15:17:52;22.10;94.60
49729;DHT22;35617;50.714;7.114;2022-10-16T15:20:21;22.00;94.80
49729;DHT22;35617;50.714;7.114;2022-10-16T15:22:47;22.00;95.00
49729;DHT22;35617;50.714;7.114;2022-10-16T15:28:10;21.90;95.40
49729;DHT22;35617;50.714;7.114;2022-10-16T15:30:37;21.70;95.60
49729;DHT22;35617;50.714;7.114;2022-10-16T15:33:04;21.70;95.70
49729;DHT22;35617;50.714;7.114;2022-10-16T15:35:30;21.70;95.90
49729;DHT22;35617;50.714;7.114;2022-10-16T15:37:56;21.60;96.10
49729;DHT22;35617;50.714;7.114;2022-10-16T15:40:22;21.50;96.30
49729;DHT22;35617;50.714;7.114;2022-10-16T15:42:48;21.50;96.50
49729;DHT22;35617;50.714;7.114;2022-10-16T15:45:15;21.40;96.70
49729;DHT22;35617;50.714;7.114;2022-10-16T15:47:42;21.40;96.90
49729;DHT22;35617;50.714;7.114;2022-10-16T15:50:10;21.40;97.00
49729;DHT22;35617;50.714;7.114;2022-10-16T15:52:36;21.30;97.30
49729;DHT22;35617;50.714;7.114;2022-10-16T15:55:02;21.30;97.40
49729;DHT22;35617;50.714;7.114;2022-10-16T15:57:28;21.20;97.60
49729;DHT22;35617;50.714;7.114;2022-10-16T15:59:54;21.20;97.90
49729;DHT22;35617;50.714;7.114;2022-10-16T16:02:20;21.20;98.10
49729;DHT22;35617;50.714;7.114;2022-10-16T16:04:46;21.10;98.30
49729;DHT22;35617;50.714;7.114;2022-10-16T16:07:11;21.10;98.50
49729;DHT22;35617;50.714;7.114;2022-10-16T16:09:37;21.00;98.60
49729;DHT22;35617;50.714;7.114;2022-10-16T16:12:03;21.00;98.70
49729;DHT22;35617;50.714;7.114;2022-10-16T16:14:29;21.00;98.90
49729;DHT22;35617;50.714;7.114;2022-10-16T16:16:55;20.90;99.00
49729;DHT22;35617;50.714;7.114;2022-10-16T16:19:20;20.90;99.10
49729;DHT22;35617;50.714;7.114;2022-10-16T16:21:50;20.90;99.40
49729;DHT22;35617;50.714;7.114;2022-10-16T16:24:16;20.80;99.60
49729;DHT22;35617;50.714;7.114;2022-10-16T16:26:42;20.80;99.80
49729;DHT22;35617;50.714;7.114;2022-10-16T16:29:13;20.70;99.90
49729;DHT22;35617;50.714;7.114;2022-10-16T16:31:40;20.70;99.90
49729;DHT22;35617;50.714;7.114;2022-10-16T16:34:06;20.60;99.90
49729;DHT22;35617;50.714;7.114;2022-10-16T16:36:32;20.60;99.90
49729;DHT22;35617;50.714;7.114;2022-10-16T16:38:58;20.50;99.90
49729;DHT22;35617;50.714;7.114;2022-10-16T16:41:26;20.50;99.90
49729;DHT22;35617;50.714;7.114;2022-10-16T16:43:53;20.40;99.90
49729;DHT22;35617;50.714;7.114;2022-10-16T16:46:19;20.40;99.90
49729;DHT22;35617;50.714;7.114;2022-10-16T16:48:45;20.40;99.90
49729;DHT22;35617;50.714;7.114;2022-10-16T16:51:13;20.30;99.90
49729;DHT22;35617;50.714;7.114;2022-10-16T16:53:50;20.30;99.90
49729;DHT22;35617;50.714;7.114;2022-10-16T16:56:16;20.30;99.90
49729;DHT22;35617;50.714;7.114;2022-10-16T16:58:45;20.20;99.90
49729;DHT22;35617;50.714;7.114;2022-10-16T17:01:11;20.20;99.90
49729;DHT22;35617;50.714;7.114;2022-10-16T17:03:37;20.10;99.90
49729;DHT22;35617;50.714;7.114;2022-10-16T17:06:05;20.10;99.90
49729;DHT22;35617;50.714;7.114;2022-10-16T17:08:32;20.10;99.90
49729;DHT22;35617;50.714;7.114;2022-10-16T17:10:57;20.00;99.90
49729;DHT22;35617;50.714;7.114;2022-10-16T17:13:29;20.00;99.90
49729;DHT22;35617;50.714;7.114;2022-10-16T17:15:55;20.00;99.90
49729;DHT22;35617;50.714;7.114;2022-10-16T17:18:22;19.90;99.90
49729;DHT22;35617;50.714;7.114;2022-10-16T17:20:49;19.90;99.90